Time;durP1;ratioP1;P1;durP2;ratioP2;P2;SDS_P1;SDS_P2;PMS_P1;PMS_P2;Temp;Humidity;BMP_temperature;BMP_pressure;BME280_temperature;BME280_humidity;BME280_pressure;Samples;Min_cycle;Max_cycle;Signal;HPM_P1;HPM_P2
2023/07/01 05:40:44;;;;;;;18.17;13.50;;;;;;;20.85;100.00;100131.69;5172177;27;20203;-72
2023/07/01 05:43:13;;;;;;;17.10;12.57;;;;;;;21.35;100.00;100128.41;5095402;28;20062;-74
2023/07/01 05:45:42;;;;;;;14.90;12.00;;;;;;;21.85;100.00;100120.28;5078870;28;20051;-73
2023/07/01 05:48:10;;;;;;;14.98;11.15;;;;;;;22.04;100.00;100124.22;5078714;28;20047;-74
2023/07/01 05:50:39;;;;;;;16.80;11.32;;;;;;;21.90;100.00;100132.31;5078914;28;20509;-74
2023/07/01 05:53:09;;;;;;;13.48;10.77;;;;;;;21.97;100.00;100127.69;5095429;28;20051;-74
2023/07/01 05:55:37;;;;;;;16.10;11.52;;;;;;;22.21;100.00;100131.31;5094907;28;20508;-74
2023/07/01 05:58:06;;;;;;;15.57;11.10;;;;;;;22.32;100.00;100141.81;5078555;28;20048;-74
2023/07/01 06:00:34;;;;;;;15.65;11.63;;;;;;;22.35;100.00;100139.13;5104051;27;20493;-73
2023/07/01 06:03:03;;;;;;;16.38;11.25;;;;;;;22.33;100.00;100137.88;5085001;28;20058;-73
2023/07/01 06:05:31;;;;;;;16.20;11.02;;;;;;;22.34;100.00;100136.69;5078540;28;20153;-73
2023/07/01 06:08:00;;;;;;;16.80;11.40;;;;;;;22.35;100.00;100135.50;5108957;27;20047;-73
2023/07/01 06:10:30;;;;;;;17.42;11.70;;;;;;;22.27;100.00;100129.81;5091675;28;20097;-74
2023/07/01 06:12:59;;;;;;;17.45;11.75;;;;;;;22.25;100.00;100132.16;5087029;27;20047;-73
2023/07/01 06:15:27;;;;;;;15.50;11.88;;;;;;;22.28;100.00;100139.78;5083112;28;20051;-73
2023/07/01 06:17:58;;;;;;;16.92;11.57;;;;;;;22.42;100.00;100141.19;5104530;27;20054;-73
2023/07/01 06:20:27;;;;;;;18.45;11.82;;;;;;;22.37;100.00;100138.72;5092046;28;20035;-74
2023/07/01 06:22:56;;;;;;;17.63;12.50;;;;;;;22.35;100.00;100141.09;5077643;27;20054;-73
2023/07/01 06:25:24;;;;;;;18.77;12.52;;;;;;;22.28;100.00;100138.97;5126822;27;20051;-74
2023/07/01 06:27:53;;;;;;;19.98;13.07;;;;;;;22.37;100.00;100138.72;5121293;28;20039;-74
2023/07/01 06:30:21;;;;;;;20.60;14.48;;;;;;;22.38;100.00;100148.72;5144165;27;20051;-73
2023/07/01 06:32:49;;;;;;;22.45;13.98;;;;;;;22.42;100.00;100146.78;5136205;27;20043;-74
2023/07/01 06:35:18;;;;;;;21.48;13.57;;;;;;;22.44;100.00;100151.97;5121769;28;20043;-73
2023/07/01 06:37:47;;;;;;;23.08;14.48;;;;;;;22.50;100.00;100158.84;5147459;27;20039;-73
2023/07/01 06:40:15;;;;;;;20.15;13.23;;;;;;;22.40;100.00;100155.50;5147575;27;20051;-73
2023/07/01 06:42:44;;;;;;;22.88;13.63;;;;;;;22.61;100.00;100159.06;5148042;27;20055;-74
2023/07/01 06:45:12;;;;;;;23.55;13.48;;;;;;;22.62;100.00;100155.13;5141755;27;20054;-73
2023/07/01 06:47:41;;;;;;;20.73;14.18;;;;;;;22.67;100.00;100161.16;5143828;27;20047;-73
2023/07/01 06:50:09;;;;;;;19.77;14.38;;;;;;;22.74;100.00;100148.53;5126911;28;20047;-74
2023/07/01 06:52:38;;;;;;;21.40;13.70;;;;;;;22.88;100.00;100157.09;5114812;28;20394;-74
2023/07/01 06:55:07;;;;;;;22.50;14.60;;;;;;;22.97;100.00;100156.84;5108722;27;20389;-74
2023/07/01 06:57:36;;;;;;;23.70;13.40;;;;;;;23.22;100.00;100159.22;5127308;27;20392;-74
2023/07/01 07:00:05;;;;;;;20.55;14.50;;;;;;;23.11;100.00;100158.25;5117350;27;20047;-73
2023/07/01 07:02:33;;;;;;;24.90;14.32;;;;;;;23.18;100.00;100159.13;5120316;27;20452;-73
2023/07/01 07:05:04;;;;;;;22.63;15.55;;;;;;;23.28;100.00;100160.50;5097259;28;20043;-74
2023/07/01 07:07:33;;;;;;;23.48;14.95;;;;;;;23.38;100.00;100158.22;5119039;27;20070;-74
2023/07/01 07:10:01;;;;;;;20.20;14.82;;;;;;;23.29;100.00;100161.28;5115885;27;20043;-74
2023/07/01 07:12:29;;;;;;;19.15;13.60;;;;;;;23.39;100.00;100157.84;5114849;28;20047;-74
2023/07/01 07:14:58;;;;;;;26.55;14.60;;;;;;;23.39;100.00;100157.03;5114373;28;20044;-74
2023/07/01 07:17:29;;;;;;;23.17;13.85;;;;;;;23.58;100.00;100156.91;5114362;28;20048;-74
2023/07/01 07:19:59;;;;;;;22.77;14.18;;;;;;;23.66;100.00;100159.78;5123105;27;20043;-74
2023/07/01 07:22:30;;;;;;;18.75;13.00;;;;;;;23.65;100.00;100160.97;5114844;28;20043;-74
2023/07/01 07:25:00;;;;;;;19.10;12.85;;;;;;;23.82;100.00;100162.38;5126270;27;20043;-75
2023/07/01 07:27:28;;;;;;;17.58;12.38;;;;;;;23.98;100.00;100162.13;5122657;27;20062;-74
2023/07/01 07:29:56;;;;;;;19.17;12.93;;;;;;;24.11;100.00;100168.31;5117784;27;20051;-74
2023/07/01 07:32:25;;;;;;;16.52;12.25;;;;;;;24.21;100.00;100166.81;5116382;27;20043;-75
2023/07/01 07:34:59;;;;;;;19.58;12.23;;;;;;;24.15;100.00;100169.94;5127332;27;20051;-74
2023/07/01 07:37:28;;;;;;;18.83;13.07;;;;;;;24.16;100.00;100165.94;5109903;28;20048;-75
2023/07/01 07:39:59;;;;;;;14.48;11.18;;;;;;;24.28;100.00;100166.88;5129199;27;20039;-74
2023/07/01 07:42:28;;;;;;;18.23;12.98;;;;;;;24.43;100.00;100163.03;5135150;27;20078;-86
2023/07/01 07:44:56;;;;;;;16.60;11.75;;;;;;;24.43;100.00;100160.22;5099182;27;20051;-86
2023/07/01 07:47:25;;;;;;;18.58;12.25;;;;;;;24.56;100.00;100165.53;5103208;28;20039;-85
2023/07/01 07:49:53;;;;;;;17.00;12.23;;;;;;;24.64;100.00;100163.59;5123598;27;20050;-85
2023/07/01 07:52:22;;;;;;;17.23;11.93;;;;;;;24.61;100.00;100167.16;5115095;27;20088;-85
2023/07/01 07:54:51;;;;;;;14.10;11.05;;;;;;;24.60;100.00;100159.97;5130062;27;20043;-85
2023/07/01 07:57:19;;;;;;;16.55;11.00;;;;;;;24.65;100.00;100166.00;5111969;27;20043;-82
2023/07/01 07:59:47;;;;;;;17.98;11.20;;;;;;;24.54;100.00;100173.50;5122989;27;20048;-83
2023/07/01 08:02:16;;;;;;;12.55;10.40;;;;;;;24.62;98.46;100166.78;5113739;28;20063;-83
2023/07/01 08:04:44;;;;;;;11.75;9.13;;;;;;;24.76;95.27;100174.47;5126457;27;20043;-82
2023/07/01 08:07:13;;;;;;;15.45;9.98;;;;;;;24.93;93.21;100172.25;5132739;27;20054;-81
2023/07/01 08:09:42;;;;;;;12.50;9.18;;;;;;;24.96;91.49;100177.03;5103987;28;20508;-80
2023/07/01 08:12:11;;;;;;;12.73;9.82;;;;;;;25.04;94.99;100173.13;5119145;27;20043;-83
2023/07/01 08:14:40;;;;;;;12.27;8.55;;;;;;;25.04;93.32;100158.31;5101334;27;20392;-81
2023/07/01 08:17:08;;;;;;;12.13;8.60;;;;;;;25.08;92.69;100161.94;5124248;27;20386;-82
2023/07/01 08:19:37;;;;;;;10.38;8.32;;;;;;;25.23;94.07;100160.81;5124982;27;20039;-80
2023/07/01 08:22:05;;;;;;;12.70;9.23;;;;;;;25.28;94.68;100165.25;5122414;27;20043;-81
2023/07/01 08:24:34;;;;;;;10.48;7.80;;;;;;;25.32;92.53;100170.88;5101821;27;20062;-80
2023/07/01 08:27:03;;;;;;;11.30;8.07;;;;;;;25.12;93.61;100161.97;5109527;27;20079;-80
2023/07/01 08:29:31;;;;;;;10.05;7.82;;;;;;;25.13;92.34;100164.38;5119103;27;20055;-80
2023/07/01 08:32:00;;;;;;;11.05;8.43;;;;;;;25.07;93.58;100161.13;5094460;27;20044;-80
2023/07/01 08:34:29;;;;;;;11.15;8.25;;;;;;;24.99;93.10;100169.88;5114536;27;20052;-80
2023/07/01 08:36:58;;;;;;;11.18;8.25;;;;;;;25.07;91.52;100163.94;5112425;28;20039;-80
2023/07/01 08:39:30;;;;;;;8.05;7.03;;;;;;;25.24;88.52;100164.44;5112822;27;20056;-79
2023/07/01 08:42:04;;;;;;;8.77;7.35;;;;;;;25.27;91.96;100163.63;5112877;28;20070;-80
2023/07/01 08:44:33;;;;;;;8.02;7.00;;;;;;;25.38;88.08;100162.91;5121861;27;20393;-78
2023/07/01 08:47:03;;;;;;;10.25;7.43;;;;;;;25.29;89.16;100154.84;5127442;27;20401;-79
2023/07/01 08:49:37;;;;;;;9.85;7.10;;;;;;;25.33;87.63;100155.69;5098193;27;20035;-79
2023/07/01 08:52:11;;;;;;;9.93;7.28;;;;;;;25.37;88.84;100150.91;5117538;27;20055;-79
2023/07/01 08:54:40;;;;;;;9.00;6.90;;;;;;;25.37;86.41;100150.91;5098543;27;20050;-79
2023/07/01 08:57:14;;;;;;;10.38;7.70;;;;;;;25.42;88.12;100144.91;5115657;27;20408;-79
2023/07/01 08:59:51;;;;;;;8.88;7.03;;;;;;;25.39;87.14;100150.50;5105432;27;20046;-79
2023/07/01 09:02:24;;;;;;;10.90;8.32;;;;;;;25.42;86.46;100147.72;5120518;27;20051;-79
2023/07/01 09:04:52;;;;;;;9.38;7.50;;;;;;;25.30;85.58;100145.25;5113463;28;20121;-79
2023/07/01 09:07:21;;;;;;;10.07;6.38;;;;;;;25.30;85.25;100151.66;5116205;27;20087;-81
2023/07/01 09:09:50;;;;;;;8.82;6.72;;;;;;;25.47;85.43;100150.13;5093612;28;20050;-79
2023/07/01 09:12:18;;;;;;;10.05;7.57;;;;;;;25.47;83.82;100149.34;5113057;28;20052;-80
2023/07/01 09:15:03;;;;;;;8.25;6.50;;;;;;;25.56;83.41;100140.63;5112962;28;20047;-81
2023/07/01 09:17:35;;;;;;;8.57;6.80;;;;;;;25.70;82.80;100137.84;5113682;28;20056;-80
2023/07/01 09:20:08;;;;;;;8.63;6.55;;;;;;;25.83;81.79;100137.47;5112860;28;20047;-80
2023/07/01 09:22:40;;;;;;;8.45;6.30;;;;;;;25.93;80.81;100127.50;5112774;28;20051;-78
2023/07/01 09:25:08;;;;;;;8.23;6.43;;;;;;;26.12;79.81;100132.75;5093530;28;20039;-79
2023/07/01 09:27:46;;;;;;;9.63;7.15;;;;;;;26.22;79.69;100133.97;5112473;28;20044;-79
2023/07/01 09:30:28;;;;;;;7.80;7.00;;;;;;;26.37;78.98;100137.59;5130340;27;20385;-77
2023/07/01 09:33:15;;;;;;;8.88;7.22;;;;;;;26.48;79.65;100126.38;5117310;28;20393;-78
2023/07/01 09:35:46;;;;;;;8.20;7.03;;;;;;;26.89;78.88;100110.31;5121078;28;20043;-77
2023/07/01 09:38:15;;;;;;;9.02;6.10;;;;;;;27.17;74.65;100109.44;5132809;28;20047;-76
2023/07/01 09:40:43;;;;;;;7.03;5.20;;;;;;;27.12;72.99;100104.25;5114650;28;20043;-78
2023/07/01 09:43:12;;;;;;;5.57;4.78;;;;;;;26.86;70.86;100114.72;5132849;28;20055;-78
2023/07/01 09:45:53;;;;;;;6.95;5.07;;;;;;;26.83;71.25;100107.09;5132023;28;20405;-85
2023/07/01 09:48:22;;;;;;;5.80;5.15;;;;;;;26.75;71.64;100106.31;5133011;28;20047;-79
2023/07/01 09:50:51;;;;;;;7.32;4.90;;;;;;;26.76;74.09;100107.94;5133041;28;20409;-77
2023/07/01 09:53:21;;;;;;;6.30;5.55;;;;;;;27.22;72.63;100100.59;5133110;28;20106;-77
2023/07/01 09:55:49;;;;;;;6.22;5.50;;;;;;;27.39;71.71;100092.53;5132119;28;20043;-78
2023/07/01 09:58:19;;;;;;;4.95;4.45;;;;;;;27.44;69.69;100103.34;5132961;28;20385;-79
2023/07/01 10:00:48;;;;;;;7.55;5.07;;;;;;;27.63;70.27;100102.03;5114824;28;20047;-76
2023/07/01 10:03:19;;;;;;;7.07;4.70;;;;;;;27.54;67.69;100084.81;5133244;28;20050;-77
2023/07/01 10:05:51;;;;;;;5.60;4.60;;;;;;;27.63;67.87;100090.81;5132296;28;20051;-76
2023/07/01 10:08:20;;;;;;;4.90;4.40;;;;;;;27.50;67.83;100084.84;5133174;28;20105;-76
2023/07/01 10:11:15;;;;;;;7.13;5.45;;;;;;;27.24;68.09;100081.31;5114919;28;20051;-76
2023/07/01 10:13:56;;;;;;;6.05;5.45;;;;;;;27.47;68.03;100070.81;5133174;28;20046;-78
2023/07/01 10:16:34;;;;;;;5.65;5.15;;;;;;;27.38;68.75;100085.31;5117412;28;20048;-77
2023/07/01 10:19:32;;;;;;;6.50;4.60;;;;;;;27.46;68.80;100077.66;5119810;28;20082;-79
2023/07/01 10:22:23;;;;;;;5.45;4.93;;;;;;;27.37;69.01;100078.88;5113031;28;20074;-77
2023/07/01 10:25:28;;;;;;;6.90;5.10;;;;;;;27.08;71.43;100067.75;5115186;28;20063;-78
2023/07/01 10:28:02;;;;;;;8.13;6.78;;;;;;;26.98;70.97;100073.41;5113750;27;20059;-78
2023/07/01 10:31:12;;;;;;;7.53;5.95;;;;;;;26.76;72.43;100077.06;5128100;27;20501;-78
2023/07/01 10:34:02;;;;;;;10.63;6.25;;;;;;;26.59;70.46;100075.06;4986768;28;20058;-78
2023/07/01 10:40:30;;;;;;;6.65;5.32;;;;;;;26.55;71.35;100070.25;5093525;28;20059;-78
2023/07/01 10:43:33;;;;;;;7.18;5.60;;;;;;;26.65;75.44;100070.66;5094933;28;20044;-81
2023/07/01 10:46:30;;;;;;;6.70;5.85;;;;;;;27.21;72.05;100062.50;5109888;28;20055;-77
2023/07/01 10:49:15;;;;;;;5.15;4.65;;;;;;;27.65;69.29;100061.50;5093578;28;20486;-78
2023/07/01 10:51:52;;;;;;;6.15;5.55;;;;;;;27.60;67.44;100063.53;5095200;28;20060;-77
2023/07/01 10:54:39;;;;;;;5.63;4.50;;;;;;;27.58;66.79;100065.97;5094883;28;20048;-80
2023/07/01 10:57:26;;;;;;;7.00;4.68;;;;;;;27.58;66.62;100060.34;5095224;28;20066;-75
2023/07/01 11:00:48;;;;;;;6.80;5.03;;;;;;;27.54;67.98;100059.53;5094220;28;20036;-76
2023/07/01 11:03:42;;;;;;;7.22;5.28;;;;;;;27.96;66.02;100056.06;5094618;28;20067;-76
2023/07/01 11:06:56;;;;;;;6.65;4.68;;;;;;;28.32;64.24;100055.81;5111961;28;20043;-75
2023/07/01 11:09:34;;;;;;;6.15;4.82;;;;;;;28.61;60.86;100055.53;5113848;28;20051;-76
2023/07/01 11:12:27;;;;;;;5.05;4.60;;;;;;;28.19;61.67;100049.06;5100402;28;20044;-78
2023/07/01 11:15:02;;;;;;;7.30;6.22;;;;;;;28.05;62.83;100050.78;5095960;28;20055;-76
2023/07/01 11:18:05;;;;;;;5.78;5.18;;;;;;;27.82;63.93;100045.72;5097171;28;20062;-79
2023/07/01 11:21:01;;;;;;;5.85;4.97;;;;;;;28.02;63.77;100043.16;5091888;28;20052;-77
2023/07/01 11:23:43;;;;;;;6.63;5.28;;;;;;;28.32;62.35;100032.50;5077634;28;20040;-77
2023/07/01 11:26:30;;;;;;;;;;;;;;;28.68;61.96;100030.13;5095099;28;20040;-77
2023/07/01 11:29:25;;;;;;;4.22;3.78;;;;;;;28.75;61.02;100025.63;5105506;28;19920;-77
2023/07/01 11:32:09;;;;;;;5.82;4.53;;;;;;;28.67;60.00;100022.09;5113387;28;20067;-76
2023/07/01 11:34:50;;;;;;;5.55;4.97;;;;;;;28.50;60.51;100019.03;5115312;28;20045;-77
2023/07/01 11:37:30;;;;;;;6.22;4.57;;;;;;;28.10;62.94;100010.19;5114090;28;20070;-76
2023/07/01 11:40:13;;;;;;;5.72;4.90;;;;;;;28.09;62.14;100019.84;5113606;28;20524;-78
2023/07/01 11:42:47;;;;;;;4.88;4.25;;;;;;;28.16;62.89;100022.56;5114338;28;20142;-77
2023/07/01 11:45:45;;;;;;;4.68;4.20;;;;;;;28.37;61.08;100015.16;5113933;28;20050;-78
2023/07/01 11:48:34;;;;;;;5.47;4.00;;;;;;;28.47;60.42;100010.63;5115994;28;20055;-76
2023/07/01 11:51:15;;;;;;;6.35;4.32;;;;;;;28.53;59.54;100011.78;5117042;28;20051;-77
2023/07/01 11:53:59;;;;;;;5.00;4.50;;;;;;;28.51;60.78;100011.41;5114788;28;20397;-77
2023/07/01 11:56:52;;;;;;;6.25;4.55;;;;;;;28.34;59.74;100002.72;5096407;28;20079;-77
2023/07/01 11:59:33;;;;;;;4.25;3.85;;;;;;;28.42;61.51;99997.84;5080191;28;20517;-76
2023/07/01 12:02:14;;;;;;;6.07;3.88;;;;;;;28.68;62.12;99999.16;5098170;28;20075;-76
2023/07/01 12:04:52;;;;;;;5.38;3.92;;;;;;;28.97;60.17;99998.03;5094841;28;20063;-76
2023/07/01 12:07:25;;;;;;;5.38;4.50;;;;;;;29.30;58.44;99998.41;5094700;28;20051;-76
2023/07/01 12:10:25;;;;;;;4.65;4.13;;;;;;;29.14;58.15;99984.16;5093053;28;20052;-75
2023/07/01 12:13:33;;;;;;;6.35;4.82;;;;;;;28.89;57.38;99997.34;5092705;28;20055;-77
2023/07/01 12:16:21;;;;;;;5.47;3.95;;;;;;;29.24;57.65;99989.63;5091987;28;20047;-75
2023/07/01 12:19:13;;;;;;;4.75;4.25;;;;;;;29.29;57.45;99994.00;5101895;28;20044;-76
2023/07/01 12:21:59;;;;;;;4.65;4.25;;;;;;;28.85;57.91;99982.47;5107527;28;20399;-77
2023/07/01 12:24:38;;;;;;;5.70;4.32;;;;;;;28.68;59.51;99992.72;5107243;28;20047;-77
2023/07/01 12:27:15;;;;;;;5.63;4.47;;;;;;;28.74;58.97;99985.41;5107297;28;20060;-78
2023/07/01 12:29:52;;;;;;;4.85;4.35;;;;;;;28.57;60.35;99978.78;5097379;28;20051;-77
2023/07/01 12:32:30;;;;;;;6.55;4.32;;;;;;;29.14;58.95;99989.78;5092420;28;20056;-78
2023/07/01 12:35:10;;;;;;;6.10;4.93;;;;;;;29.33;57.91;99991.13;5092819;28;20048;-77
2023/07/01 12:37:45;;;;;;;5.75;5.15;;;;;;;29.60;56.74;99984.72;5092235;28;20052;-77
2023/07/01 12:40:23;;;;;;;4.97;4.47;;;;;;;29.80;57.90;99984.00;5109431;28;20051;-78
2023/07/01 12:42:57;;;;;;;5.80;5.20;;;;;;;30.10;56.20;99979.50;5095707;28;20298;-78
2023/07/01 12:45:39;;;;;;;6.07;4.70;;;;;;;30.25;58.20;99978.00;5094341;28;20497;-77
2023/07/01 12:48:14;;;;;;;6.43;4.88;;;;;;;30.30;55.90;99979.56;5112558;27;20047;-78
2023/07/01 12:50:48;;;;;;;5.47;4.97;;;;;;;29.73;57.39;99976.47;5116963;27;20048;-77
2023/07/01 12:53:20;;;;;;;6.85;5.20;;;;;;;29.92;56.86;99980.59;5109216;28;20078;-77
2023/07/01 12:55:57;;;;;;;7.00;4.38;;;;;;;29.46;57.56;99966.78;5101779;28;20047;-78
2023/07/01 12:58:40;;;;;;;5.22;4.55;;;;;;;29.35;57.93;99972.59;5113671;27;20040;-78
2023/07/01 13:01:18;;;;;;;5.80;4.43;;;;;;;29.47;57.59;99976.81;5106817;27;20039;-78
2023/07/01 13:03:52;;;;;;;5.22;4.50;;;;;;;29.54;59.61;99966.69;5104638;27;20047;-77
2023/07/01 13:06:33;;;;;;;7.85;5.35;;;;;;;29.90;57.89;99949.19;5097122;28;20047;-78
2023/07/01 13:09:13;;;;;;;5.47;4.85;;;;;;;29.91;58.46;99964.91;5093700;27;20406;-77
2023/07/01 13:11:52;;;;;;;5.78;5.28;;;;;;;29.54;58.16;99967.50;5121572;27;20459;-78
2023/07/01 13:14:31;;;;;;;6.03;5.43;;;;;;;29.22;59.39;99966.72;5130641;27;20393;-77
2023/07/01 13:17:08;;;;;;;5.70;5.10;;;;;;;28.94;59.06;99959.47;5106967;27;20050;-79
2023/07/01 13:19:36;;;;;;;6.38;4.97;;;;;;;28.80;60.55;99964.03;5116476;27;20039;-78
2023/07/01 13:22:04;;;;;;;5.43;4.80;;;;;;;28.59;62.06;99961.47;5100079;27;20048;-79
2023/07/01 13:24:44;;;;;;;5.05;4.55;;;;;;;28.60;61.56;99951.81;5097294;28;20048;-79
2023/07/01 13:27:15;;;;;;;5.72;5.10;;;;;;;28.34;61.35;99960.53;5112237;27;20395;-78
2023/07/01 13:29:43;;;;;;;7.85;5.00;;;;;;;28.21;61.54;99953.81;5120154;27;20054;-78
2023/07/01 13:32:12;;;;;;;6.05;4.78;;;;;;;28.09;63.57;99957.97;5112792;27;20395;-78
2023/07/01 13:34:43;;;;;;;5.30;4.80;;;;;;;28.04;63.42;99951.56;5116110;27;20389;-79
2023/07/01 13:37:18;;;;;;;8.52;5.78;;;;;;;27.93;62.53;99959.28;5095561;27;20047;-79
2023/07/01 13:39:48;;;;;;;7.25;5.63;;;;;;;27.93;65.74;99950.06;5128793;27;20055;-79
2023/07/01 13:42:23;;;;;;;5.30;4.80;;;;;;;28.01;64.22;99946.75;5113148;27;20055;-79
2023/07/01 13:44:54;;;;;;;6.10;4.95;;;;;;;27.99;64.18;99954.00;5115797;27;20394;-79
2023/07/01 13:47:36;;;;;;;5.70;5.10;;;;;;;27.95;64.71;99944.84;5114618;27;20043;-79
2023/07/01 13:50:08;;;;;;;5.63;4.93;;;;;;;28.09;62.92;99952.34;5118515;27;20102;-78
2023/07/01 13:52:41;;;;;;;6.47;5.10;;;;;;;28.72;62.33;99954.06;5112493;27;20425;-78
2023/07/01 13:55:10;;;;;;;6.25;4.90;;;;;;;29.30;60.82;99953.34;5114789;27;20043;-78
2023/07/01 13:57:39;;;;;;;7.43;5.00;;;;;;;29.62;59.02;99954.09;5116154;27;20493;-79
2023/07/01 14:00:14;;;;;;;5.70;5.10;;;;;;;29.85;55.69;99952.47;5098937;28;20206;-79
2023/07/01 14:02:43;;;;;;;6.47;4.95;;;;;;;30.03;55.01;99946.53;5116728;27;20052;-79
2023/07/01 14:05:12;;;;;;;8.25;5.22;;;;;;;30.16;55.19;99950.34;5121210;27;20405;-79
2023/07/01 14:07:40;;;;;;;6.47;5.07;;;;;;;30.23;56.17;99955.06;5116649;27;20047;-79
2023/07/01 14:10:28;;;;;;;6.10;4.68;;;;;;;30.51;55.27;99958.56;5101901;27;20058;-78
2023/07/01 14:13:01;;;;;;;5.13;4.63;;;;;;;30.59;54.78;99945.09;5116686;27;20048;-79
2023/07/01 14:15:43;;;;;;;5.00;4.40;;;;;;;30.52;52.99;99942.41;5112172;27;20397;-80
2023/07/01 14:18:25;;;;;;;5.35;4.40;;;;;;;30.27;53.92;99944.53;5141193;27;20366;-80
2023/07/01 14:21:04;;;;;;;5.25;4.63;;;;;;;30.17;56.22;99935.00;5124286;27;20036;-79
2023/07/01 14:23:38;;;;;;;5.95;4.13;;;;;;;30.47;53.00;99938.09;5115353;27;20390;-79
2023/07/01 14:26:17;;;;;;;7.63;4.30;;;;;;;30.86;53.31;99924.41;5121106;27;20055;-79
2023/07/01 14:28:45;;;;;;;4.43;3.95;;;;;;;30.77;54.89;99922.19;5124657;27;20047;-78
2023/07/01 14:31:17;;;;;;;5.60;4.20;;;;;;;31.18;51.90;99924.91;5127896;27;20306;-78
2023/07/01 14:34:01;;;;;;;5.47;4.03;;;;;;;31.43;51.34;99917.91;5120957;27;20389;-79
2023/07/01 14:36:45;;;;;;;6.07;4.10;;;;;;;31.58;50.38;99918.34;5119328;27;20043;-80
2023/07/01 14:39:38;;;;;;;5.95;4.00;;;;;;;31.70;51.19;99913.97;5118298;27;20051;-79
2023/07/01 14:42:29;;;;;;;4.60;4.20;;;;;;;30.84;52.62;99910.72;5117698;27;20043;-79
2023/07/01 14:45:05;;;;;;;6.70;4.88;;;;;;;31.16;53.35;99910.41;5106551;28;20436;-79
2023/07/01 14:47:34;;;;;;;4.78;4.00;;;;;;;31.19;52.04;99901.88;5107248;28;20394;-79
2023/07/01 14:50:03;;;;;;;5.75;4.60;;;;;;;31.31;51.42;99899.59;5120424;27;20116;-78
2023/07/01 14:52:32;;;;;;;4.40;4.00;;;;;;;31.11;52.52;99898.41;5121701;27;20039;-78
2023/07/01 14:55:01;;;;;;;4.97;4.55;;;;;;;31.07;52.63;99896.88;5115038;28;20421;-79
2023/07/01 14:57:29;;;;;;;5.00;4.22;;;;;;;31.10;52.44;99896.03;5117817;27;20050;-78
2023/07/01 14:59:58;;;;;;;5.00;4.53;;;;;;;31.11;52.54;99903.25;5105579;27;20055;-78
2023/07/01 15:02:27;;;;;;;5.95;4.53;;;;;;;31.24;52.99;99890.03;5136545;27;20054;-79
2023/07/01 15:04:55;;;;;;;4.93;3.88;;;;;;;31.41;51.11;99892.13;5135428;27;20043;-79
2023/07/01 15:07:24;;;;;;;3.90;3.60;;;;;;;31.36;51.00;99891.41;5135927;27;20054;-79
2023/07/01 15:09:52;;;;;;;5.03;4.53;;;;;;;30.77;51.61;99890.31;5136087;27;20385;-80
2023/07/01 15:12:21;;;;;;;3.85;3.50;;;;;;;31.01;52.38;99887.34;5135569;27;20046;-79
2023/07/01 15:14:49;;;;;;;4.57;3.50;;;;;;;31.16;51.94;99876.50;5135035;27;20051;-79
2023/07/01 15:17:21;;;;;;;3.65;3.35;;;;;;;31.06;52.41;99882.00;5135696;27;20043;-79
2023/07/01 15:19:50;;;;;;;5.13;4.63;;;;;;;30.53;53.01;99885.53;5135203;27;20055;-80
2023/07/01 15:22:19;;;;;;;3.97;3.67;;;;;;;30.33;55.77;99890.38;5136198;27;20044;-77
2023/07/01 15:24:48;;;;;;;4.28;3.88;;;;;;;30.16;53.78;99884.69;5136068;27;20390;-79
2023/07/01 15:27:17;;;;;;;4.47;4.07;;;;;;;30.13;54.84;99885.53;5134994;27;20047;-79
2023/07/01 15:29:46;;;;;;;7.43;4.00;;;;;;;29.92;55.73;99884.69;5152758;27;20401;-79
2023/07/01 15:32:14;;;;;;;3.95;3.55;;;;;;;29.76;54.79;99886.19;5160549;27;20511;-80
2023/07/01 15:34:43;;;;;;;4.13;3.72;;;;;;;29.61;56.22;99888.44;5154124;27;20042;-79
2023/07/01 15:37:11;;;;;;;5.57;4.40;;;;;;;29.49;56.94;99886.25;5153075;27;20043;-79
2023/07/01 15:39:39;;;;;;;3.70;3.40;;;;;;;29.50;55.40;99890.66;5119657;27;20047;-79
2023/07/01 15:42:08;;;;;;;4.85;4.38;;;;;;;29.62;56.50;99890.03;5114199;28;20071;-80
2023/07/01 15:44:36;;;;;;;5.10;4.38;;;;;;;29.41;56.05;99877.06;5112919;28;20036;-78
2023/07/01 15:47:06;;;;;;;5.15;4.13;;;;;;;29.43;56.19;99877.47;5113129;28;20043;-78
2023/07/01 15:49:35;;;;;;;4.60;4.18;;;;;;;29.48;56.44;99874.16;5095488;28;20039;-79
2023/07/01 15:52:08;;;;;;;3.97;3.67;;;;;;;29.53;55.50;99877.72;5113858;28;20043;-77
2023/07/01 15:54:39;;;;;;;4.15;3.75;;;;;;;29.46;56.29;99879.41;5113949;27;20051;-79
2023/07/01 15:57:08;;;;;;;4.65;4.13;;;;;;;29.57;54.87;99873.59;5113554;28;20047;-80
2023/07/01 15:59:37;;;;;;;4.78;4.20;;;;;;;29.61;56.33;99880.00;5112480;28;20386;-80
2023/07/01 16:02:08;;;;;;;5.38;3.97;;;;;;;29.71;54.98;99883.84;5113781;28;20043;-79
2023/07/01 16:04:40;;;;;;;4.45;4.05;;;;;;;29.45;55.90;99869.38;5113208;28;20391;-78
2023/07/01 16:07:20;;;;;;;6.05;4.40;;;;;;;29.41;57.30;99877.06;5114551;28;20371;-79
2023/07/01 16:09:59;;;;;;;4.20;3.88;;;;;;;29.56;56.86;99871.25;5097703;28;20401;-79
2023/07/01 16:12:33;;;;;;;8.55;4.47;;;;;;;29.34;56.06;99880.00;5117477;27;20039;-80
2023/07/01 16:15:05;;;;;;;7.35;4.85;;;;;;;29.19;57.87;99879.44;5097158;28;20052;-79
2023/07/01 16:17:38;;;;;;;4.45;4.05;;;;;;;29.26;56.92;99884.19;5114171;28;20059;-80
2023/07/01 16:20:25;;;;;;;6.32;4.53;;;;;;;29.30;57.35;99873.63;5113532;28;20066;-79
2023/07/01 16:22:53;;;;;;;4.88;3.97;;;;;;;29.20;57.03;99876.22;5121967;27;20082;-80
2023/07/01 16:25:24;;;;;;;5.60;4.72;;;;;;;29.14;58.15;99872.28;5134336;27;20575;-77
2023/07/01 16:27:55;;;;;;;5.03;4.53;;;;;;;29.19;57.75;99879.44;5116678;27;20405;-79
2023/07/01 16:30:24;;;;;;;5.45;4.40;;;;;;;29.37;57.51;99870.69;5119461;27;20047;-78
2023/07/01 16:32:58;;;;;;;5.60;4.50;;;;;;;29.33;56.87;99873.56;5116408;27;20035;-79
2023/07/01 16:35:39;;;;;;;5.43;4.93;;;;;;;29.28;58.13;99876.09;5134792;27;20485;-79
2023/07/01 16:38:26;;;;;;;6.18;4.78;;;;;;;29.11;57.52;99878.75;5124065;27;20394;-79
2023/07/01 16:40:55;;;;;;;7.45;4.70;;;;;;;29.08;58.96;99877.59;5089977;28;20059;-80
2023/07/01 16:43:34;;;;;;;5.50;4.28;;;;;;;29.08;58.47;99874.00;5112815;28;20414;-80
2023/07/01 16:46:03;;;;;;;5.00;4.50;;;;;;;29.10;56.83;99868.72;5116986;28;20051;-77
2023/07/01 16:48:53;;;;;;;4.75;4.18;;;;;;;29.29;57.73;99866.41;5095346;28;20489;-78
2023/07/01 16:51:22;;;;;;;5.22;4.63;;;;;;;29.27;56.68;99874.50;5111786;28;20486;-79
2023/07/01 16:54:06;;;;;;;6.05;5.45;;;;;;;29.13;56.73;99878.34;5115380;27;20382;-78
2023/07/01 16:56:47;;;;;;;6.63;4.97;;;;;;;29.03;57.29;99877.28;5116806;27;20489;-80
2023/07/01 16:59:37;;;;;;;5.22;4.57;;;;;;;29.08;58.02;99877.59;5113642;28;20046;-79
2023/07/01 17:02:32;;;;;;;6.13;5.10;;;;;;;29.20;57.65;99883.84;5112454;28;20066;-79
2023/07/01 17:05:10;;;;;;;6.47;4.43;;;;;;;29.03;58.12;99874.47;5112718;28;20050;-78
2023/07/01 17:07:40;;;;;;;7.00;5.53;;;;;;;29.10;59.04;99885.63;5094458;28;20044;-78
2023/07/01 17:10:39;;;;;;;5.90;4.38;;;;;;;29.05;59.35;99880.47;5112716;28;20048;-78
2023/07/01 17:13:31;;;;;;;5.25;4.75;;;;;;;29.04;59.94;99878.88;5102645;27;20047;-80
2023/07/01 17:16:01;;;;;;;6.97;5.13;;;;;;;28.88;58.49;99885.91;5116411;27;20047;-79
2023/07/01 17:18:31;;;;;;;5.57;5.07;;;;;;;28.89;58.48;99884.72;5114582;27;20043;-78
2023/07/01 17:21:00;;;;;;;5.28;4.78;;;;;;;28.88;58.88;99885.13;5095675;27;20141;-79
2023/07/01 17:23:29;;;;;;;5.47;4.85;;;;;;;28.88;57.83;99896.41;5114116;27;20052;-80
2023/07/01 17:26:01;;;;;;;4.68;4.20;;;;;;;28.89;58.41;99895.19;5112658;28;20043;-79
2023/07/01 17:28:30;;;;;;;5.65;4.40;;;;;;;28.95;58.85;99899.09;5118180;27;20386;-80
2023/07/01 17:30:58;;;;;;;6.25;4.90;;;;;;;28.83;58.74;99900.44;5095558;28;20051;-80
2023/07/01 17:33:26;;;;;;;5.47;4.80;;;;;;;28.80;58.72;99904.13;5111028;27;20036;-80
2023/07/01 17:35:55;;;;;;;4.70;4.07;;;;;;;28.88;58.06;99905.63;5098052;28;20058;-80
2023/07/01 17:38:23;;;;;;;5.63;4.43;;;;;;;28.75;59.74;99896.13;5111675;27;20051;-79
2023/07/01 17:40:51;;;;;;;7.85;4.78;;;;;;;28.82;58.12;99907.28;5116956;28;20040;-80
2023/07/01 17:43:20;;;;;;;5.78;5.20;;;;;;;28.80;58.08;99910.56;5112884;28;20406;-81